createdAt,value
2019-03-24T00:00:35.488Z,64.47
2019-03-24T00:03:05.134Z,64.37
2019-03-24T00:05:34.664Z,64.40
2019-03-24T00:08:04.242Z,64.50
2019-03-24T00:10:33.782Z,64.42
2019-03-24T00:13:03.355Z,64.43
2019-03-24T00:15:32.848Z,64.63
2019-03-24T00:18:02.370Z,64.60
2019-03-24T00:20:31.926Z,64.65
2019-03-24T00:23:01.584Z,64.62
2019-03-24T00:25:31.281Z,64.56
2019-03-24T00:28:20.117Z,64.43
2019-03-24T00:30:49.595Z,64.41
2019-03-24T00:33:19.095Z,64.34
2019-03-24T00:35:48.636Z,64.48
2019-03-24T00:38:18.206Z,64.49
2019-03-24T00:40:47.754Z,64.64
2019-03-24T00:43:17.333Z,64.70
2019-03-24T00:45:46.814Z,64.64
2019-03-24T00:48:16.382Z,64.69
2019-03-24T00:50:45.866Z,65.03
2019-03-24T00:53:15.443Z,64.91
2019-03-24T00:55:45.060Z,64.77
2019-03-24T00:58:16.200Z,64.71
2019-03-24T01:00:50.739Z,64.66
2019-03-24T01:03:20.541Z,64.65
2019-03-24T01:05:50.107Z,64.58
2019-03-24T01:08:19.829Z,64.79
2019-03-24T01:10:49.389Z,64.57
2019-03-24T01:13:18.956Z,64.72
2019-03-24T01:15:48.515Z,64.53
2019-03-24T01:18:18.045Z,64.61
2019-03-24T01:20:47.544Z,64.44
2019-03-24T01:23:17.056Z,64.60
2019-03-24T01:25:46.739Z,64.37
2019-03-24T01:28:16.356Z,64.38
2019-03-24T01:30:45.981Z,64.50
2019-03-24T01:33:15.473Z,64.37
2019-03-24T01:35:45.010Z,64.23
2019-03-24T01:38:16.264Z,64.25
2019-03-24T01:40:45.725Z,64.24
2019-03-24T01:43:15.218Z,63.91
2019-03-24T01:45:44.707Z,63.95
2019-03-24T01:48:16.113Z,64.04
2019-03-24T01:50:45.593Z,63.69
2019-03-24T01:53:15.060Z,63.82
2019-03-24T01:55:44.601Z,63.40
2019-03-24T01:58:14.092Z,63.37
2019-03-24T02:00:43.596Z,63.44
2019-03-24T02:03:13.064Z,63.43
2019-03-24T02:05:42.579Z,63.36
2019-03-24T02:08:12.119Z,63.57
2019-03-24T02:10:41.615Z,63.29
2019-03-24T02:13:11.081Z,63.35
2019-03-24T02:15:40.646Z,63.52
2019-03-24T02:18:10.118Z,63.37
2019-03-24T02:20:39.613Z,63.45
2019-03-24T02:23:09.152Z,63.35
2019-03-24T02:25:38.650Z,63.49
2019-03-24T02:28:08.176Z,63.65
2019-03-24T02:30:37.689Z,63.68
2019-03-24T02:33:07.252Z,63.60
2019-03-24T02:35:36.942Z,63.63
2019-03-24T02:38:06.423Z,63.63
2019-03-24T02:40:35.910Z,63.78
2019-03-24T02:43:05.503Z,63.67
2019-03-24T02:45:35.034Z,64.00
2019-03-24T02:48:04.570Z,63.95
2019-03-24T02:50:34.058Z,64.24
2019-03-24T02:53:03.605Z,64.24
2019-03-24T02:55:33.097Z,64.12
2019-03-24T02:58:02.651Z,64.31
2019-03-24T03:00:32.194Z,64.45
2019-03-24T03:03:01.745Z,64.43
2019-03-24T03:05:31.232Z,64.56
2019-03-24T03:08:00.722Z,64.54
2019-03-24T03:10:30.217Z,64.46
2019-03-24T03:12:59.716Z,64.51
2019-03-24T03:15:29.796Z,64.52
2019-03-24T03:17:59.375Z,64.73
2019-03-24T03:20:30.054Z,64.64
2019-03-24T03:22:59.540Z,64.66
2019-03-24T03:25:29.045Z,64.50
2019-03-24T03:27:58.508Z,64.54
2019-03-24T03:30:28.042Z,64.71
2019-03-24T03:32:57.610Z,64.67
2019-03-24T03:35:27.082Z,64.76
2019-03-24T03:37:56.543Z,64.63
2019-03-24T03:40:26.201Z,64.72
2019-03-24T03:42:55.663Z,64.81
2019-03-24T03:45:29.402Z,64.82
2019-03-24T03:47:59.017Z,64.65
2019-03-24T03:50:28.478Z,64.81
2019-03-24T03:52:57.976Z,64.73
2019-03-24T03:55:27.587Z,64.79
2019-03-24T03:57:57.082Z,64.69
2019-03-24T04:00:53.729Z,64.65
2019-03-24T04:03:23.260Z,64.81
2019-03-24T04:05:52.737Z,64.80
2019-03-24T04:08:22.214Z,64.97
2019-03-24T04:10:51.884Z,64.97
2019-03-24T04:13:21.328Z,64.84
2019-03-24T04:15:50.878Z,65.01
2019-03-24T04:18:39.800Z,65.04
2019-03-24T04:21:09.323Z,65.03
2019-03-24T04:23:38.832Z,64.81
2019-03-24T04:26:08.305Z,64.80
2019-03-24T04:28:37.805Z,64.78
2019-03-24T04:31:07.290Z,65.03
2019-03-24T04:33:36.824Z,64.99
2019-03-24T04:36:06.418Z,65.13
2019-03-24T04:38:35.876Z,64.99
2019-03-24T04:41:05.449Z,64.91
2019-03-24T04:43:34.926Z,64.88
2019-03-24T04:46:04.393Z,64.97
2019-03-24T04:48:33.944Z,64.84
2019-03-24T04:51:03.439Z,64.98
2019-03-24T04:53:33.050Z,64.90
2019-03-24T04:56:02.716Z,65.05
2019-03-24T04:58:32.207Z,65.12
2019-03-24T05:01:01.678Z,65.08
2019-03-24T05:03:31.177Z,65.08
2019-03-24T05:06:00.750Z,65.08
2019-03-24T05:08:30.790Z,65.18
2019-03-24T05:11:00.252Z,65.27
2019-03-24T05:13:29.840Z,65.44
2019-03-24T05:15:59.326Z,65.55
2019-03-24T05:18:28.805Z,65.84
2019-03-24T05:20:58.311Z,65.90
2019-03-24T05:23:27.878Z,66.02
2019-03-24T05:25:57.339Z,66.11
2019-03-24T05:28:26.834Z,66.13
2019-03-24T05:30:56.341Z,66.15
2019-03-24T05:33:25.807Z,66.10
2019-03-24T05:35:55.298Z,66.24
2019-03-24T05:38:24.772Z,66.14
2019-03-24T05:40:54.333Z,66.33
2019-03-24T05:43:23.848Z,66.13
2019-03-24T05:45:53.425Z,66.22
2019-03-24T05:48:23.028Z,66.17
2019-03-24T05:50:52.518Z,65.95
2019-03-24T05:53:21.986Z,66.08
2019-03-24T05:55:51.534Z,66.12
2019-03-24T05:58:21.002Z,66.21
2019-03-24T06:00:50.489Z,66.50
2019-03-24T06:03:20.257Z,66.46
2019-03-24T06:05:49.747Z,66.53
2019-03-24T06:08:19.273Z,66.61
2019-03-24T06:10:48.731Z,66.70
2019-03-24T06:13:18.195Z,66.84
2019-03-24T06:15:47.696Z,66.51
2019-03-24T06:18:17.199Z,66.65
2019-03-24T06:20:46.700Z,66.94
2019-03-24T06:23:16.171Z,66.80
2019-03-24T06:25:45.699Z,66.93
2019-03-24T06:28:16.868Z,66.96
2019-03-24T06:30:46.354Z,67.04
2019-03-24T06:33:16.065Z,67.03
2019-03-24T06:35:45.562Z,66.63
2019-03-24T06:38:15.052Z,66.52
2019-03-24T06:40:44.585Z,66.34
2019-03-24T06:43:14.098Z,66.15
2019-03-24T06:45:43.830Z,66.23
2019-03-24T06:48:13.411Z,66.13
2019-03-24T06:50:42.914Z,66.30
2019-03-24T06:53:12.416Z,66.35
2019-03-24T06:55:42.534Z,66.20
2019-03-24T06:58:12.108Z,65.96
2019-03-24T07:00:41.582Z,66.01
2019-03-24T07:03:11.146Z,65.69
2019-03-24T07:05:40.610Z,65.90
2019-03-24T07:08:10.127Z,65.82
2019-03-24T07:10:39.726Z,65.40
2019-03-24T07:13:09.244Z,65.00
2019-03-24T07:15:38.885Z,65.13
2019-03-24T07:18:08.976Z,65.17
2019-03-24T07:20:38.634Z,64.80
2019-03-24T07:23:08.110Z,64.60
2019-03-24T07:25:37.587Z,64.57
2019-03-24T07:28:07.165Z,64.51
2019-03-24T07:30:36.655Z,64.46
2019-03-24T07:33:06.138Z,64.44
2019-03-24T07:35:35.735Z,64.31
2019-03-24T07:38:05.305Z,64.27
2019-03-24T07:40:34.800Z,64.51
2019-03-24T07:43:04.285Z,64.26
2019-03-24T07:45:33.841Z,64.14
2019-03-24T07:48:03.492Z,64.05
2019-03-24T07:50:32.983Z,63.97
2019-03-24T07:53:02.506Z,63.95
2019-03-24T07:55:32.049Z,63.80
2019-03-24T07:58:01.617Z,63.44
2019-03-24T08:00:36.619Z,63.69
2019-03-24T08:03:06.289Z,63.29
2019-03-24T08:05:35.934Z,63.25
2019-03-24T08:08:05.779Z,62.96
2019-03-24T08:10:35.254Z,63.19
2019-03-24T08:13:04.908Z,62.92
2019-03-24T08:15:34.425Z,62.85
2019-03-24T08:18:03.954Z,63.34
2019-03-24T08:20:33.451Z,62.36
2019-03-24T08:23:03.023Z,62.99
2019-03-24T08:25:32.970Z,63.17
2019-03-24T08:28:02.549Z,62.32
2019-03-24T08:30:34.739Z,62.77
2019-03-24T08:33:04.859Z,63.21
2019-03-24T08:35:34.374Z,62.65
2019-03-24T08:38:04.026Z,62.23
2019-03-24T08:40:33.495Z,62.13
2019-03-24T08:43:03.186Z,61.90
2019-03-24T08:45:33.368Z,62.17
2019-03-24T08:48:02.826Z,62.22
2019-03-24T08:50:32.389Z,61.42
2019-03-24T08:53:01.972Z,61.46
2019-03-24T08:55:31.507Z,60.98
2019-03-24T08:58:01.164Z,60.33
2019-03-24T09:00:31.167Z,60.72
2019-03-24T09:03:00.707Z,60.47
2019-03-24T09:05:30.190Z,59.75
2019-03-24T09:07:59.801Z,59.99
2019-03-24T09:10:29.361Z,59.92
2019-03-24T09:12:58.900Z,59.50
2019-03-24T09:15:28.397Z,59.32
2019-03-24T09:17:57.873Z,58.94
2019-03-24T09:20:27.370Z,59.13
2019-03-24T09:22:56.859Z,58.13
2019-03-24T09:25:26.435Z,58.47
2019-03-24T09:27:55.944Z,58.58
2019-03-24T09:30:31.169Z,59.24
2019-03-24T09:33:00.663Z,58.62
2019-03-24T09:35:30.158Z,58.56
2019-03-24T09:37:59.826Z,57.55
2019-03-24T09:40:37.029Z,57.33
2019-03-24T09:43:07.554Z,57.16
2019-03-24T09:45:49.235Z,57.32
2019-03-24T09:48:18.792Z,56.74
2019-03-24T09:50:48.444Z,56.60
2019-03-24T09:53:18.035Z,57.28
2019-03-24T09:55:47.540Z,57.37
2019-03-24T09:58:17.025Z,55.59
2019-03-24T10:00:46.673Z,55.46
2019-03-24T10:03:16.160Z,56.12
2019-03-24T10:05:45.626Z,55.79
2019-03-24T10:08:15.152Z,56.53
2019-03-24T10:10:44.635Z,55.23
2019-03-24T10:13:14.114Z,54.98
2019-03-24T10:15:43.685Z,54.34
2019-03-24T10:18:13.239Z,53.85
2019-03-24T10:20:42.749Z,53.40
2019-03-24T10:23:12.225Z,53.85
2019-03-24T10:25:41.905Z,53.56
2019-03-24T10:28:11.395Z,52.87
2019-03-24T10:30:40.887Z,53.40
2019-03-24T10:33:10.362Z,53.13
2019-03-24T10:35:39.921Z,52.66
2019-03-24T10:38:09.362Z,53.04
2019-03-24T10:40:38.864Z,51.88
2019-03-24T10:43:08.443Z,52.07
2019-03-24T10:45:37.937Z,51.69
2019-03-24T10:48:07.512Z,51.14
2019-03-24T10:50:37.034Z,50.25
2019-03-24T10:53:06.585Z,50.85
2019-03-24T10:55:36.225Z,51.16
2019-03-24T10:58:05.873Z,51.96
2019-03-24T11:00:43.403Z,50.61
2019-03-24T11:03:13.061Z,51.10
2019-03-24T11:05:42.671Z,50.17
2019-03-24T11:08:12.359Z,50.63
2019-03-24T11:10:41.864Z,49.86
2019-03-24T11:13:11.432Z,48.83
2019-03-24T11:15:40.984Z,49.80
2019-03-24T11:18:10.478Z,49.72
2019-03-24T11:20:39.972Z,50.75
2019-03-24T11:23:09.503Z,47.99
2019-03-24T11:25:39.070Z,47.63
2019-03-24T11:28:08.703Z,48.51
2019-03-24T11:30:38.268Z,48.49
2019-03-24T11:33:07.838Z,48.14
2019-03-24T11:35:37.354Z,48.30
2019-03-24T11:38:06.890Z,47.02
2019-03-24T11:40:36.414Z,47.40
2019-03-24T11:43:06.017Z,46.74
2019-03-24T11:45:35.607Z,46.56
2019-03-24T11:48:05.156Z,45.47
2019-03-24T11:50:34.658Z,46.04
2019-03-24T11:53:04.467Z,42.96
2019-03-24T11:55:33.980Z,42.96
2019-03-24T11:58:05.910Z,43.45
2019-03-24T12:00:36.959Z,43.43
2019-03-24T12:03:06.590Z,43.51
2019-03-24T12:05:36.140Z,43.54
2019-03-24T12:08:06.239Z,42.22
2019-03-24T12:10:35.860Z,42.79
2019-03-24T12:13:08.113Z,43.76
2019-03-24T12:15:36.790Z,44.19
2019-03-24T12:18:06.407Z,44.49
2019-03-24T12:20:35.978Z,44.47
2019-03-24T12:23:05.522Z,43.67
2019-03-24T12:25:35.095Z,43.18
2019-03-24T12:28:04.761Z,43.25
2019-03-24T12:30:34.304Z,43.60
2019-03-24T12:33:03.855Z,43.58
2019-03-24T12:35:33.483Z,43.19
2019-03-24T12:38:03.035Z,42.87
2019-03-24T12:40:32.596Z,41.40
2019-03-24T12:43:02.094Z,41.53
2019-03-24T12:45:33.601Z,41.40
2019-03-24T12:48:02.955Z,41.91
2019-03-24T12:50:32.555Z,41.49
2019-03-24T12:53:02.102Z,41.54
2019-03-24T12:55:31.633Z,41.85
2019-03-24T12:58:01.197Z,41.80
2019-03-24T13:00:34.134Z,41.95
2019-03-24T13:03:03.863Z,40.92
2019-03-24T13:05:33.504Z,41.81
2019-03-24T13:08:14.883Z,41.49
2019-03-24T13:10:45.765Z,41.10
2019-03-24T13:13:15.296Z,41.52
2019-03-24T13:15:44.902Z,41.12
2019-03-24T13:18:15.306Z,41.04
2019-03-24T13:20:44.790Z,41.21
2019-03-24T13:23:14.358Z,39.87
2019-03-24T13:25:43.916Z,40.45
2019-03-24T13:28:13.409Z,39.22
2019-03-24T13:30:42.990Z,38.22
2019-03-24T13:33:12.529Z,38.19
2019-03-24T13:35:42.425Z,37.54
2019-03-24T13:38:11.973Z,37.31
2019-03-24T13:40:41.557Z,37.62
2019-03-24T13:43:11.070Z,36.98
2019-03-24T13:45:40.974Z,35.52
2019-03-24T13:48:10.609Z,37.46
2019-03-24T13:50:40.222Z,37.29
2019-03-24T13:53:09.736Z,35.86
2019-03-24T13:55:39.245Z,35.39
2019-03-24T13:58:09.074Z,34.96
2019-03-24T14:00:38.628Z,34.99
2019-03-24T14:03:08.106Z,35.79
2019-03-24T14:05:37.695Z,35.20
2019-03-24T14:08:07.235Z,34.81
2019-03-24T14:10:36.723Z,34.69
2019-03-24T14:13:06.231Z,35.09
2019-03-24T14:15:35.703Z,34.25
2019-03-24T14:18:05.308Z,34.35
2019-03-24T14:20:43.244Z,35.48
2019-03-24T14:23:06.326Z,34.79
2019-03-24T14:25:35.815Z,35.22
2019-03-24T14:28:05.318Z,34.54
2019-03-24T14:30:46.634Z,36.11
2019-03-24T14:33:16.356Z,35.18
2019-03-24T14:35:46.071Z,35.63
2019-03-24T14:38:15.704Z,35.86
2019-03-24T14:40:45.353Z,35.14
2019-03-24T14:43:15.035Z,35.58
2019-03-24T14:45:44.652Z,36.55
2019-03-24T14:48:33.486Z,34.39
2019-03-24T14:51:03.042Z,34.83
2019-03-24T14:53:32.559Z,34.92
2019-03-24T14:56:02.043Z,35.04
2019-03-24T14:58:31.792Z,34.46
2019-03-24T15:01:01.357Z,34.61
2019-03-24T15:03:30.863Z,33.51
2019-03-24T15:06:00.416Z,34.07
2019-03-24T15:08:29.996Z,33.62
2019-03-24T15:10:59.575Z,32.82
2019-03-24T15:13:29.065Z,32.58
2019-03-24T15:15:58.569Z,33.29
2019-03-24T15:18:28.056Z,32.55
2019-03-24T15:21:05.640Z,31.82
2019-03-24T15:23:28.828Z,32.14
2019-03-24T15:25:58.312Z,32.16
2019-03-24T15:28:27.854Z,32.11
2019-03-24T15:30:57.433Z,32.93
2019-03-24T15:33:26.923Z,32.70
2019-03-24T15:35:56.495Z,33.52
2019-03-24T15:38:26.074Z,33.07
2019-03-24T15:40:55.549Z,32.80
2019-03-24T15:43:25.094Z,31.98
2019-03-24T15:45:54.668Z,32.15
2019-03-24T15:48:24.175Z,32.11
2019-03-24T15:50:53.750Z,31.75
2019-03-24T15:53:23.255Z,32.63
2019-03-24T15:55:52.731Z,33.70
2019-03-24T15:58:22.231Z,33.02
2019-03-24T16:00:51.802Z,31.47
2019-03-24T16:03:21.361Z,31.30
2019-03-24T16:05:51.023Z,31.66
2019-03-24T16:08:20.716Z,31.03
2019-03-24T16:10:50.283Z,31.68
2019-03-24T16:13:19.760Z,31.49
2019-03-24T16:15:49.265Z,31.50
2019-03-24T16:18:18.860Z,32.20
2019-03-24T16:20:48.530Z,31.13
2019-03-24T16:23:18.085Z,32.20
2019-03-24T16:25:47.674Z,31.30
2019-03-24T16:28:17.265Z,32.41
2019-03-24T16:30:46.825Z,33.21
2019-03-24T16:33:16.400Z,32.29
2019-03-24T16:35:45.882Z,32.12
2019-03-24T16:38:15.410Z,32.44
2019-03-24T16:40:44.961Z,32.88
2019-03-24T16:43:14.548Z,32.35
2019-03-24T16:45:44.042Z,32.28
2019-03-24T16:48:13.571Z,33.18
2019-03-24T16:50:43.069Z,32.50
2019-03-24T16:53:12.678Z,32.11
2019-03-24T16:55:42.149Z,31.76
2019-03-24T16:58:11.724Z,32.51
2019-03-24T17:00:41.233Z,33.40
2019-03-24T17:03:10.773Z,34.56
2019-03-24T17:05:40.320Z,33.59
2019-03-24T17:08:09.820Z,33.52
2019-03-24T17:10:39.494Z,34.46
2019-03-24T17:13:08.987Z,34.86
2019-03-24T17:15:38.532Z,34.48
2019-03-24T17:18:08.227Z,35.11
2019-03-24T17:20:37.832Z,35.36
2019-03-24T17:23:07.394Z,35.27
2019-03-24T17:25:37.056Z,35.60
2019-03-24T17:28:06.677Z,35.82
2019-03-24T17:30:36.232Z,36.28
2019-03-24T17:33:05.889Z,36.26
2019-03-24T17:35:35.568Z,36.32
2019-03-24T17:38:05.489Z,36.46
2019-03-24T17:40:38.757Z,36.27
2019-03-24T17:43:06.750Z,36.29
2019-03-24T17:45:36.325Z,36.16
2019-03-24T17:48:06.162Z,36.54
2019-03-24T17:50:35.757Z,37.05
2019-03-24T17:53:06.792Z,37.46
2019-03-24T17:55:36.602Z,37.44
2019-03-24T17:58:07.075Z,37.49
2019-03-24T18:00:44.408Z,38.01
2019-03-24T18:03:14.085Z,38.24
2019-03-24T18:05:43.548Z,38.83
2019-03-24T18:08:13.094Z,38.83
2019-03-24T18:10:42.732Z,39.48
2019-03-24T18:13:12.251Z,39.35
2019-03-24T18:15:41.742Z,39.36
2019-03-24T18:18:11.260Z,39.62
2019-03-24T18:20:40.834Z,40.51
2019-03-24T18:23:10.421Z,41.59
2019-03-24T18:25:40.039Z,41.05
2019-03-24T18:28:09.646Z,42.31
2019-03-24T18:30:39.189Z,42.02
2019-03-24T18:33:08.910Z,43.68
2019-03-24T18:35:38.378Z,43.39
2019-03-24T18:38:07.935Z,43.88
2019-03-24T18:40:37.572Z,44.37
2019-03-24T18:43:07.202Z,45.82
2019-03-24T18:45:36.846Z,45.91
2019-03-24T18:48:07.124Z,45.81
2019-03-24T18:50:36.649Z,45.52
2019-03-24T18:53:06.269Z,46.82
2019-03-24T18:55:35.773Z,47.46
2019-03-24T18:58:05.473Z,47.67
2019-03-24T19:00:34.927Z,48.23
2019-03-24T19:03:04.510Z,48.02
2019-03-24T19:05:35.176Z,48.43
2019-03-24T19:08:04.917Z,48.92
2019-03-24T19:10:34.447Z,49.59
2019-03-24T19:13:04.035Z,49.48
2019-03-24T19:15:33.503Z,49.93
2019-03-24T19:18:03.171Z,50.16
2019-03-24T19:20:32.647Z,50.54
2019-03-24T19:23:02.179Z,50.86
2019-03-24T19:25:31.784Z,51.37
2019-03-24T19:28:01.474Z,50.95
2019-03-24T19:30:37.945Z,51.34
2019-03-24T19:33:07.806Z,52.09
2019-03-24T19:35:37.544Z,51.81
2019-03-24T19:38:07.166Z,49.98
2019-03-24T19:40:36.791Z,51.94
2019-03-24T19:43:06.712Z,51.22
2019-03-24T19:45:36.223Z,50.91
2019-03-24T19:48:05.830Z,51.59
2019-03-24T19:50:35.457Z,51.43
2019-03-24T19:53:05.383Z,52.12
2019-03-24T19:55:34.867Z,53.48
2019-03-24T19:58:04.493Z,51.69
2019-03-24T20:00:34.100Z,51.38
2019-03-24T20:03:03.691Z,52.49
2019-03-24T20:05:33.208Z,52.70
2019-03-24T20:08:02.733Z,52.86
2019-03-24T20:10:32.255Z,52.96
2019-03-24T20:13:01.725Z,53.11
2019-03-24T20:15:33.967Z,53.30
2019-03-24T20:18:03.498Z,53.89
2019-03-24T20:20:32.984Z,53.49
2019-03-24T20:23:02.764Z,53.09
2019-03-24T20:25:32.318Z,53.33
2019-03-24T20:28:01.819Z,53.79
2019-03-24T20:30:31.359Z,53.81
2019-03-24T20:35:37.167Z,54.34
2019-03-24T20:38:06.632Z,55.04
2019-03-24T20:40:36.629Z,54.30
2019-03-24T20:43:06.293Z,54.42
2019-03-24T20:45:35.892Z,54.79
2019-03-24T20:48:05.534Z,54.74
2019-03-24T20:50:35.209Z,55.00
2019-03-24T20:53:17.308Z,54.96
2019-03-24T20:55:36.342Z,54.77
2019-03-24T20:58:05.999Z,55.55
2019-03-24T21:00:37.244Z,55.00
2019-03-24T21:03:08.745Z,55.53
2019-03-24T21:05:38.414Z,55.40
2019-03-24T21:08:08.096Z,55.54
2019-03-24T21:10:37.726Z,55.83
2019-03-24T21:13:07.373Z,55.63
2019-03-24T21:15:36.988Z,55.69
2019-03-24T21:18:06.592Z,55.53
2019-03-24T21:20:36.219Z,55.51
2019-03-24T21:23:06.027Z,55.80
2019-03-24T21:25:35.608Z,55.71
2019-03-24T21:28:05.125Z,55.59
2019-03-24T21:30:40.413Z,55.84
2019-03-24T21:33:10.101Z,56.11
2019-03-24T21:35:39.738Z,56.13
2019-03-24T21:38:09.344Z,56.36
2019-03-24T21:40:38.787Z,56.55
2019-03-24T21:43:08.423Z,56.60
2019-03-24T21:45:37.890Z,56.54
2019-03-24T21:48:07.396Z,56.53
2019-03-24T21:50:36.883Z,56.32
2019-03-24T21:53:06.721Z,56.21
2019-03-24T21:55:36.264Z,56.13
2019-03-24T21:58:06.191Z,56.13
2019-03-24T22:00:37.028Z,56.01
2019-03-24T22:03:07.333Z,55.94
2019-03-24T22:05:37.134Z,55.97
2019-03-24T22:08:06.738Z,55.83
2019-03-24T22:10:36.343Z,55.80
2019-03-24T22:13:06.285Z,55.79
2019-03-24T22:15:36.086Z,55.77
2019-03-24T22:18:05.782Z,55.72
2019-03-24T22:20:35.324Z,55.80
2019-03-24T22:23:05.024Z,55.76
2019-03-24T22:25:34.578Z,55.75
2019-03-24T22:28:04.346Z,55.86
2019-03-24T22:30:33.983Z,56.02
2019-03-24T22:33:03.547Z,56.15
2019-03-24T22:35:33.062Z,56.16
2019-03-24T22:38:02.741Z,56.24
2019-03-24T22:40:32.216Z,56.27
2019-03-24T22:43:01.854Z,56.28
2019-03-24T22:45:31.424Z,56.37
2019-03-24T22:48:01.137Z,56.70
2019-03-24T22:50:30.622Z,56.84
2019-03-24T22:53:00.124Z,56.85
2019-03-24T22:55:29.590Z,56.94
2019-03-24T22:57:59.150Z,57.11
2019-03-24T23:03:17.648Z,57.56
2019-03-24T23:05:47.137Z,57.75
2019-03-24T23:08:16.671Z,57.86
2019-03-24T23:10:46.302Z,58.07
2019-03-24T23:13:15.799Z,58.26
2019-03-24T23:15:45.308Z,58.36
2019-03-24T23:18:14.756Z,58.43
2019-03-24T23:20:44.330Z,58.57
2019-03-24T23:23:13.978Z,58.71
2019-03-24T23:25:43.625Z,58.89
2019-03-24T23:28:13.629Z,59.07
2019-03-24T23:30:43.122Z,59.14
2019-03-24T23:33:12.589Z,59.52
2019-03-24T23:35:42.083Z,59.68
2019-03-24T23:38:11.580Z,60.11
2019-03-24T23:40:41.044Z,60.05
2019-03-24T23:43:10.671Z,59.91
2019-03-24T23:45:40.158Z,60.01
2019-03-24T23:48:09.767Z,60.06
2019-03-24T23:50:39.375Z,60.43
2019-03-24T23:53:08.939Z,60.75
2019-03-24T23:55:38.449Z,60.93
2019-03-24T23:58:08.065Z,61.01
